sensor_id;sensor_type;location;lat;lon;timestamp;pressure;altitude;pressure_sealevel;temperature;humidity
75692;BME280;64307;52.508;6.090;2023-05-07T00:01:14;101721.84;;;14.25;100.00
75692;BME280;64307;52.508;6.090;2023-05-07T00:03:40;101723.06;;;14.28;100.00
75692;BME280;64307;52.508;6.090;2023-05-07T00:06:05;101717.84;;;14.37;100.00
75692;BME280;64307;52.508;6.090;2023-05-07T00:08:30;101720.28;;;14.31;100.00
75692;BME280;64307;52.508;6.090;2023-05-07T00:10:56;101725.47;;;14.40;100.00
75692;BME280;64307;52.508;6.090;2023-05-07T00:13:21;101729.06;;;14.33;100.00
75692;BME280;64307;52.508;6.090;2023-05-07T00:15:46;101727.88;;;14.34;100.00
75692;BME280;64307;52.508;6.090;2023-05-07T00:18:11;101710.66;;;14.29;100.00
75692;BME280;64307;52.508;6.090;2023-05-07T00:20:37;101720.28;;;14.31;100.00
75692;BME280;64307;52.508;6.090;2023-05-07T00:23:02;101711.06;;;14.41;100.00
75692;BME280;64307;52.508;6.090;2023-05-07T00:25:27;101712.66;;;14.42;100.00
75692;BME280;64307;52.508;6.090;2023-05-07T00:27:53;101712.28;;;14.30;100.00
75692;BME280;64307;52.508;6.090;2023-05-07T00:30:18;101715.47;;;14.32;100.00
75692;BME280;64307;52.508;6.090;2023-05-07T00:32:43;101718.28;;;14.32;100.00
75692;BME280;64307;52.508;6.090;2023-05-07T00:35:10;101711.47;;;14.29;100.00
75692;BME280;64307;52.508;6.090;2023-05-07T00:37:36;101710.28;;;14.34;100.00
75692;BME280;64307;52.508;6.090;2023-05-07T00:40:01;101707.84;;;14.39;100.00
75692;BME280;64307;52.508;6.090;2023-05-07T00:42:30;101711.84;;;14.42;100.00
75692;BME280;64307;52.508;6.090;2023-05-07T00:44:57;101709.84;;;14.53;100.00
75692;BME280;64307;52.508;6.090;2023-05-07T00:47:22;101706.25;;;14.49;100.00
75692;BME280;64307;52.508;6.090;2023-05-07T00:49:48;101713.88;;;14.48;100.00
75692;BME280;64307;52.508;6.090;2023-05-07T00:52:15;101707.88;;;14.43;100.00
75692;BME280;64307;52.508;6.090;2023-05-07T00:54:42;101703.03;;;14.43;100.00
75692;BME280;64307;52.508;6.090;2023-05-07T00:57:09;101702.25;;;14.43;100.00
75692;BME280;64307;52.508;6.090;2023-05-07T00:59:34;101699.84;;;14.38;100.00
75692;BME280;64307;52.508;6.090;2023-05-07T01:02:00;101709.88;;;14.42;100.00
75692;BME280;64307;52.508;6.090;2023-05-07T01:04:26;101703.06;;;14.36;100.00
75692;BME280;64307;52.508;6.090;2023-05-07T01:06:52;101696.66;;;14.32;100.00
75692;BME280;64307;52.508;6.090;2023-05-07T01:09:20;101693.03;;;14.35;100.00
75692;BME280;64307;52.508;6.090;2023-05-07T01:11:47;101699.06;;;14.34;100.00
75692;BME280;64307;52.508;6.090;2023-05-07T01:14:13;101695.84;;;14.39;100.00
75692;BME280;64307;52.508;6.090;2023-05-07T01:16:38;101694.66;;;14.36;100.00
75692;BME280;64307;52.508;6.090;2023-05-07T01:19:07;101693.03;;;14.42;100.00
75692;BME280;64307;52.508;6.090;2023-05-07T01:21:33;101691.44;;;14.38;100.00
75692;BME280;64307;52.508;6.090;2023-05-07T01:24:00;101690.66;;;14.34;100.00
75692;BME280;64307;52.508;6.090;2023-05-07T01:26:25;101691.84;;;14.40;100.00
75692;BME280;64307;52.508;6.090;2023-05-07T01:28:51;101690.25;;;14.42;100.00
75692;BME280;64307;52.508;6.090;2023-05-07T01:31:16;101680.63;;;14.29;100.00
75692;BME280;64307;52.508;6.090;2023-05-07T01:33:42;101685.00;;;14.27;100.00
75692;BME280;64307;52.508;6.090;2023-05-07T01:36:10;101689.03;;;14.26;100.00
75692;BME280;64307;52.508;6.090;2023-05-07T01:38:37;101691.03;;;14.22;100.00
75692;BME280;64307;52.508;6.090;2023-05-07T01:41:04;101686.25;;;14.22;100.00
75692;BME280;64307;52.508;6.090;2023-05-07T01:43:30;101689.03;;;14.22;100.00
75692;BME280;64307;52.508;6.090;2023-05-07T01:45:57;101698.22;;;14.23;100.00
75692;BME280;64307;52.508;6.090;2023-05-07T01:48:23;101687.84;;;14.20;100.00
75692;BME280;64307;52.508;6.090;2023-05-07T01:50:49;101691.81;;;14.19;100.00
75692;BME280;64307;52.508;6.090;2023-05-07T01:53:15;101692.63;;;14.19;100.00
75692;BME280;64307;52.508;6.090;2023-05-07T01:55:40;101686.63;;;14.14;100.00
75692;BME280;64307;52.508;6.090;2023-05-07T01:58:05;101698.63;;;14.11;100.00
75692;BME280;64307;52.508;6.090;2023-05-07T02:00:31;101705.03;;;14.15;100.00
75692;BME280;64307;52.508;6.090;2023-05-07T02:02:56;101695.03;;;14.17;100.00
75692;BME280;64307;52.508;6.090;2023-05-07T02:05:22;101692.25;;;14.14;100.00
75692;BME280;64307;52.508;6.090;2023-05-07T02:07:47;101697.03;;;14.10;100.00
75692;BME280;64307;52.508;6.090;2023-05-07T02:10:13;101699.84;;;14.10;100.00
75692;BME280;64307;52.508;6.090;2023-05-07T02:12:38;101697.44;;;14.05;100.00
75692;BME280;64307;52.508;6.090;2023-05-07T02:15:03;101693.44;;;13.98;100.00
75692;BME280;64307;52.508;6.090;2023-05-07T02:17:29;101708.22;;;14.03;100.00
75692;BME280;64307;52.508;6.090;2023-05-07T02:19:57;101702.22;;;14.04;100.00
75692;BME280;64307;52.508;6.090;2023-05-07T02:22:22;101705.03;;;14.04;100.00
75692;BME280;64307;52.508;6.090;2023-05-07T02:24:47;101707.84;;;14.01;100.00
75692;BME280;64307;52.508;6.090;2023-05-07T02:27:12;101708.63;;;14.05;100.00
75692;BME280;64307;52.508;6.090;2023-05-07T02:29:39;101704.22;;;14.00;100.00
75692;BME280;64307;52.508;6.090;2023-05-07T02:32:04;101705.03;;;14.01;100.00
75692;BME280;64307;52.508;6.090;2023-05-07T02:34:30;101703.84;;;13.94;100.00
75692;BME280;64307;52.508;6.090;2023-05-07T02:36:55;101711.44;;;13.98;100.00
75692;BME280;64307;52.508;6.090;2023-05-07T02:39:20;101697.44;;;13.90;100.00
75692;BME280;64307;52.508;6.090;2023-05-07T02:41:46;101712.63;;;13.93;100.00
75692;BME280;64307;52.508;6.090;2023-05-07T02:44:11;101695.81;;;13.82;100.00
75692;BME280;64307;52.508;6.090;2023-05-07T02:46:36;101706.22;;;13.85;100.00
75692;BME280;64307;52.508;6.090;2023-05-07T02:49:02;101711.81;;;13.82;100.00
75692;BME280;64307;52.508;6.090;2023-05-07T02:51:27;101708.59;;;13.83;100.00
75692;BME280;64307;52.508;6.090;2023-05-07T02:53:52;101714.63;;;13.78;100.00
75692;BME280;64307;52.508;6.090;2023-05-07T02:56:18;101703.41;;;13.64;100.00
75692;BME280;64307;52.508;6.090;2023-05-07T02:58:43;101705.75;;;13.59;100.00
75692;BME280;64307;52.508;6.090;2023-05-07T03:01:08;101702.97;;;13.52;100.00
75692;BME280;64307;52.508;6.090;2023-05-07T03:03:34;101708.97;;;13.57;100.00
75692;BME280;64307;52.508;6.090;2023-05-07T03:06:00;101712.97;;;13.60;100.00
75692;BME280;64307;52.508;6.090;2023-05-07T03:08:25;101709.34;;;13.45;100.00
75692;BME280;64307;52.508;6.090;2023-05-07T03:10:51;101709.34;;;13.45;100.00
75692;BME280;64307;52.508;6.090;2023-05-07T03:13:16;101714.13;;;13.45;100.00
75692;BME280;64307;52.508;6.090;2023-05-07T03:15:42;101708.53;;;13.45;100.00
75692;BME280;64307;52.508;6.090;2023-05-07T03:18:07;101704.13;;;13.37;100.00
75692;BME280;64307;52.508;6.090;2023-05-07T03:20:33;101717.28;;;13.36;100.00
75692;BME280;64307;52.508;6.090;2023-05-07T03:22:58;101713.28;;;13.30;100.00
75692;BME280;64307;52.508;6.090;2023-05-07T03:25:23;101716.47;;;13.25;100.00
75692;BME280;64307;52.508;6.090;2023-05-07T03:27:48;101714.84;;;13.21;100.00
75692;BME280;64307;52.508;6.090;2023-05-07T03:30:14;101722.47;;;13.24;100.00
75692;BME280;64307;52.508;6.090;2023-05-07T03:32:39;101723.25;;;13.21;100.00
75692;BME280;64307;52.508;6.090;2023-05-07T03:35:05;101714.84;;;13.17;100.00
75692;BME280;64307;52.508;6.090;2023-05-07T03:37:30;101713.22;;;13.09;100.00
75692;BME280;64307;52.508;6.090;2023-05-07T03:39:56;101714.38;;;13.04;100.00
75692;BME280;64307;52.508;6.090;2023-05-07T03:42:21;101711.59;;;13.04;100.00
75692;BME280;64307;52.508;6.090;2023-05-07T03:44:46;101718.72;;;13.02;100.00
75692;BME280;64307;52.508;6.090;2023-05-07T03:47:13;101715.53;;;13.00;100.00
75692;BME280;64307;52.508;6.090;2023-05-07T03:49:39;101715.53;;;12.96;100.00
75692;BME280;64307;52.508;6.090;2023-05-07T03:52:04;101718.72;;;12.98;100.00
75692;BME280;64307;52.508;6.090;2023-05-07T03:54:30;101724.31;;;12.95;100.00
75692;BME280;64307;52.508;6.090;2023-05-07T03:56:55;101723.91;;;12.93;100.00
75692;BME280;64307;52.508;6.090;2023-05-07T03:59:22;101713.06;;;12.91;100.00
75692;BME280;64307;52.508;6.090;2023-05-07T04:01:47;101722.63;;;12.87;100.00
75692;BME280;64307;52.508;6.090;2023-05-07T04:04:14;101721.84;;;12.86;100.00
75692;BME280;64307;52.508;6.090;2023-05-07T04:06:39;101737.47;;;12.94;100.00
75692;BME280;64307;52.508;6.090;2023-05-07T04:09:04;101736.69;;;12.97;100.00
75692;BME280;64307;52.508;6.090;2023-05-07T04:11:30;101739.06;;;12.92;100.00
75692;BME280;64307;52.508;6.090;2023-05-07T04:13:55;101737.06;;;12.92;100.00
75692;BME280;64307;52.508;6.090;2023-05-07T04:16:20;101737.06;;;12.89;100.00
75692;BME280;64307;52.508;6.090;2023-05-07T04:18:45;101751.41;;;12.87;100.00
75692;BME280;64307;52.508;6.090;2023-05-07T04:21:15;101743.88;;;12.95;100.00
75692;BME280;64307;52.508;6.090;2023-05-07T04:23:41;101734.69;;;12.94;100.00
75692;BME280;64307;52.508;6.090;2023-05-07T04:26:06;101742.66;;;12.89;100.00
75692;BME280;64307;52.508;6.090;2023-05-07T04:28:32;101737.88;;;12.93;100.00
75692;BME280;64307;52.508;6.090;2023-05-07T04:30:57;101746.97;;;12.79;100.00
75692;BME280;64307;52.508;6.090;2023-05-07T04:33:22;101748.19;;;12.85;100.00
75692;BME280;64307;52.508;6.090;2023-05-07T04:35:48;101746.56;;;12.81;100.00
75692;BME280;64307;52.508;6.090;2023-05-07T04:38:13;101744.97;;;12.80;100.00
75692;BME280;64307;52.508;6.090;2023-05-07T04:40:39;101740.47;;;12.65;100.00
75692;BME280;64307;52.508;6.090;2023-05-07T04:43:04;101740.81;;;12.56;100.00
75692;BME280;64307;52.508;6.090;2023-05-07T04:45:29;101751.16;;;12.52;100.00
75692;BME280;64307;52.508;6.090;2023-05-07T04:47:55;101749.59;;;12.55;100.00
75692;BME280;64307;52.508;6.090;2023-05-07T04:50:20;101757.22;;;12.61;100.00
75692;BME280;64307;52.508;6.090;2023-05-07T04:52:48;101748.88;;;12.65;100.00
75692;BME280;64307;52.508;6.090;2023-05-07T04:55:13;101755.19;;;12.55;100.00
75692;BME280;64307;52.508;6.090;2023-05-07T04:57:39;101757.22;;;12.58;100.00
75692;BME280;64307;52.508;6.090;2023-05-07T05:00:06;101761.19;;;12.57;100.00
75692;BME280;64307;52.508;6.090;2023-05-07T05:02:33;101759.59;;;12.59;100.00
75692;BME280;64307;52.508;6.090;2023-05-07T05:04:58;101764.38;;;12.55;100.00
75692;BME280;64307;52.508;6.090;2023-05-07T05:07:24;101765.63;;;12.65;100.00
75692;BME280;64307;52.508;6.090;2023-05-07T05:09:49;101771.28;;;12.72;100.00
75692;BME280;64307;52.508;6.090;2023-05-07T05:12:15;101767.97;;;12.56;100.00
75692;BME280;64307;52.508;6.090;2023-05-07T05:14:40;101776.69;;;12.51;100.00
75692;BME280;64307;52.508;6.090;2023-05-07T05:17:05;101779.94;;;12.56;100.00
75692;BME280;64307;52.508;6.090;2023-05-07T05:19:31;101782.38;;;12.58;100.00
75692;BME280;64307;52.508;6.090;2023-05-07T05:21:56;101778.28;;;12.48;100.00
75692;BME280;64307;52.508;6.090;2023-05-07T05:24:21;101784.78;;;12.63;100.00
75692;BME280;64307;52.508;6.090;2023-05-07T05:26:46;101788.00;;;12.65;100.00
75692;BME280;64307;52.508;6.090;2023-05-07T05:29:12;101789.72;;;12.83;100.00
75692;BME280;64307;52.508;6.090;2023-05-07T05:31:37;101789.63;;;12.73;100.00
75692;BME280;64307;52.508;6.090;2023-05-07T05:34:02;101797.34;;;12.90;100.00
75692;BME280;64307;52.508;6.090;2023-05-07T05:36:28;101794.22;;;12.95;100.00
75692;BME280;64307;52.508;6.090;2023-05-07T05:38:53;101788.97;;;12.90;100.00
75692;BME280;64307;52.508;6.090;2023-05-07T05:41:19;101794.06;;;12.77;100.00
75692;BME280;64307;52.508;6.090;2023-05-07T05:43:44;101793.25;;;12.77;100.00
75692;BME280;64307;52.508;6.090;2023-05-07T05:46:09;101801.72;;;12.87;100.00
75692;BME280;64307;52.508;6.090;2023-05-07T05:48:36;101812.50;;;12.85;100.00
75692;BME280;64307;52.508;6.090;2023-05-07T05:51:02;101809.75;;;12.92;100.00
75692;BME280;64307;52.508;6.090;2023-05-07T05:53:27;101809.00;;;12.99;100.00
75692;BME280;64307;52.508;6.090;2023-05-07T05:55:52;101808.56;;;12.93;100.00
75692;BME280;64307;52.508;6.090;2023-05-07T05:58:18;101804.81;;;12.72;100.00
75692;BME280;64307;52.508;6.090;2023-05-07T06:00:44;101808.84;;;12.78;100.00
75692;BME280;64307;52.508;6.090;2023-05-07T06:03:09;101811.97;;;12.69;100.00
75692;BME280;64307;52.508;6.090;2023-05-07T06:05:35;101808.56;;;12.93;100.00
75692;BME280;64307;52.508;6.090;2023-05-07T06:08:00;101807.31;;;12.87;100.00
75692;BME280;64307;52.508;6.090;2023-05-07T06:10:26;101809.75;;;12.92;99.81
75692;BME280;64307;52.508;6.090;2023-05-07T06:12:52;101812.09;;;12.87;100.00
75692;BME280;64307;52.508;6.090;2023-05-07T06:15:17;101815.47;;;13.10;99.31
75692;BME280;64307;52.508;6.090;2023-05-07T06:17:42;101816.22;;;13.03;99.23
75692;BME280;64307;52.508;6.090;2023-05-07T06:20:08;101813.81;;;13.02;99.04
75692;BME280;64307;52.508;6.090;2023-05-07T06:22:33;101816.75;;;13.20;98.74
75692;BME280;64307;52.508;6.090;2023-05-07T06:24:59;101818.03;;;13.36;97.98
75692;BME280;64307;52.508;6.090;2023-05-07T06:27:24;101815.63;;;13.35;98.33
75692;BME280;64307;52.508;6.090;2023-05-07T06:29:50;101814.00;;;13.30;97.26
75692;BME280;64307;52.508;6.090;2023-05-07T06:32:15;101817.66;;;13.38;96.68
75692;BME280;64307;52.508;6.090;2023-05-07T06:34:42;101816.78;;;13.30;97.58
75692;BME280;64307;52.508;6.090;2023-05-07T06:37:07;101817.81;;;13.80;95.81
75692;BME280;64307;52.508;6.090;2023-05-07T06:39:32;101825.34;;;13.65;96.58
75692;BME280;64307;52.508;6.090;2023-05-07T06:42:00;101822.84;;;13.43;96.95
75692;BME280;64307;52.508;6.090;2023-05-07T06:44:25;101824.94;;;13.56;95.97
75692;BME280;64307;52.508;6.090;2023-05-07T06:46:50;101824.53;;;13.65;95.64
75692;BME280;64307;52.508;6.090;2023-05-07T06:49:16;101821.38;;;13.66;96.05
75692;BME280;64307;52.508;6.090;2023-05-07T06:51:42;101828.59;;;13.71;96.11
75692;BME280;64307;52.508;6.090;2023-05-07T06:54:08;101833.88;;;14.04;94.77
75692;BME280;64307;52.508;6.090;2023-05-07T06:56:33;101822.66;;;14.01;95.38
75692;BME280;64307;52.508;6.090;2023-05-07T06:59:00;101829.03;;;13.90;94.05
75692;BME280;64307;52.508;6.090;2023-05-07T07:01:25;101829.41;;;13.85;94.64
75692;BME280;64307;52.508;6.090;2023-05-07T07:03:50;101835.72;;;13.61;95.10
75692;BME280;64307;52.508;6.090;2023-05-07T07:06:16;101825.78;;;13.71;95.77
75692;BME280;64307;52.508;6.090;2023-05-07T07:08:42;101825.41;;;13.76;95.22
75692;BME280;64307;52.508;6.090;2023-05-07T07:11:09;101834.72;;;14.12;93.70
75692;BME280;64307;52.508;6.090;2023-05-07T07:13:35;101824.66;;;13.96;93.45
75692;BME280;64307;52.508;6.090;2023-05-07T07:16:00;101831.91;;;14.12;93.18
75692;BME280;64307;52.508;6.090;2023-05-07T07:18:25;101826.00;;;14.45;91.97
75692;BME280;64307;52.508;6.090;2023-05-07T07:20:51;101835.19;;;14.56;91.29
75692;BME280;64307;52.508;6.090;2023-05-07T07:23:19;101842.41;;;14.74;91.27
75692;BME280;64307;52.508;6.090;2023-05-07T07:25:45;101836.00;;;14.67;90.92
75692;BME280;64307;52.508;6.090;2023-05-07T07:28:10;101837.97;;;14.45;91.58
75692;BME280;64307;52.508;6.090;2023-05-07T07:30:36;101835.97;;;14.74;90.79
75692;BME280;64307;52.508;6.090;2023-05-07T07:33:01;101829.91;;;15.21;87.96
75692;BME280;64307;52.508;6.090;2023-05-07T07:35:34;101831.41;;;15.61;86.93
75692;BME280;64307;52.508;6.090;2023-05-07T07:38:00;101827.56;;;14.81;89.58
75692;BME280;64307;52.508;6.090;2023-05-07T07:40:25;101827.88;;;15.25;88.48
75692;BME280;64307;52.508;6.090;2023-05-07T07:42:51;101821.44;;;18.15;75.91
75692;BME280;64307;52.508;6.090;2023-05-07T07:45:20;101836.03;;;21.24;63.25
75692;BME280;64307;52.508;6.090;2023-05-07T07:47:45;101834.03;;;22.57;59.86
75692;BME280;64307;52.508;6.090;2023-05-07T07:50:11;101823.25;;;22.40;56.87
75692;BME280;64307;52.508;6.090;2023-05-07T07:52:36;101835.50;;;21.70;59.13
75692;BME280;64307;52.508;6.090;2023-05-07T07:55:02;101833.25;;;21.65;61.33
75692;BME280;64307;52.508;6.090;2023-05-07T07:57:27;101835.78;;;19.01;69.70
75692;BME280;64307;52.508;6.090;2023-05-07T07:59:52;101830.97;;;19.99;65.56
75692;BME280;64307;52.508;6.090;2023-05-07T08:02:18;101826.22;;;20.32;65.87
75692;BME280;64307;52.508;6.090;2023-05-07T08:04:43;101831.34;;;20.21;65.79
75692;BME280;64307;52.508;6.090;2023-05-07T08:07:10;101837.56;;;18.15;71.61
75692;BME280;64307;52.508;6.090;2023-05-07T08:09:36;101840.59;;;19.66;68.67
75692;BME280;64307;52.508;6.090;2023-05-07T08:12:01;101843.19;;;19.96;65.89
75692;BME280;64307;52.508;6.090;2023-05-07T08:14:27;101838.41;;;20.29;63.99
75692;BME280;64307;52.508;6.090;2023-05-07T08:16:53;101834.53;;;21.19;62.28
75692;BME280;64307;52.508;6.090;2023-05-07T08:19:19;101832.84;;;21.22;62.19
75692;BME280;64307;52.508;6.090;2023-05-07T08:21:44;101839.81;;;22.04;57.84
75692;BME280;64307;52.508;6.090;2023-05-07T08:24:12;101839.94;;;22.25;58.14
75692;BME280;64307;52.508;6.090;2023-05-07T08:26:38;101842.91;;;23.19;56.03
75692;BME280;64307;52.508;6.090;2023-05-07T08:29:04;101835.22;;;21.52;60.84
75692;BME280;64307;52.508;6.090;2023-05-07T08:31:29;101838.78;;;20.95;62.30
75692;BME280;64307;52.508;6.090;2023-05-07T08:33:55;101838.88;;;20.44;63.92
75692;BME280;64307;52.508;6.090;2023-05-07T08:36:20;101838.44;;;20.93;62.50
75692;BME280;64307;52.508;6.090;2023-05-07T08:38:46;101835.00;;;20.37;63.85
75692;BME280;64307;52.508;6.090;2023-05-07T08:41:11;101832.88;;;20.58;63.22
75692;BME280;64307;52.508;6.090;2023-05-07T08:43:38;101843.56;;;20.98;61.82
75692;BME280;64307;52.508;6.090;2023-05-07T08:46:05;101834.06;;;19.69;65.48
75692;BME280;64307;52.508;6.090;2023-05-07T08:48:33;101847.72;;;21.10;61.17
75692;BME280;64307;52.508;6.090;2023-05-07T08:50:59;101838.28;;;19.61;65.70
75692;BME280;64307;52.508;6.090;2023-05-07T08:53:24;101833.16;;;20.11;65.97
75692;BME280;64307;52.508;6.090;2023-05-07T08:55:51;101843.75;;;20.75;62.77
75692;BME280;64307;52.508;6.090;2023-05-07T08:58:16;101845.25;;;20.31;62.89
75692;BME280;64307;52.508;6.090;2023-05-07T09:00:41;101853.59;;;20.19;65.15
75692;BME280;64307;52.508;6.090;2023-05-07T09:03:07;101848.28;;;21.91;59.73
75692;BME280;64307;52.508;6.090;2023-05-07T09:05:32;101855.31;;;20.32;63.22
75692;BME280;64307;52.508;6.090;2023-05-07T09:08:05;101841.72;;;21.08;62.88
75692;BME280;64307;52.508;6.090;2023-05-07T09:10:33;101834.03;;;22.32;58.37
75692;BME280;64307;52.508;6.090;2023-05-07T09:12:58;101840.13;;;20.91;61.49
75692;BME280;64307;52.508;6.090;2023-05-07T09:15:24;101841.09;;;22.78;56.80
75692;BME280;64307;52.508;6.090;2023-05-07T09:17:50;101837.75;;;22.92;56.23
75692;BME280;64307;52.508;6.090;2023-05-07T09:20:16;101847.59;;;23.13;55.89
75692;BME280;64307;52.508;6.090;2023-05-07T09:22:41;101848.34;;;20.85;61.49
75692;BME280;64307;52.508;6.090;2023-05-07T09:25:07;101851.41;;;20.26;64.41
75692;BME280;64307;52.508;6.090;2023-05-07T09:27:33;101851.63;;;21.16;62.46
75692;BME280;64307;52.508;6.090;2023-05-07T09:29:58;101847.00;;;21.79;59.76
75692;BME280;64307;52.508;6.090;2023-05-07T09:32:25;101853.94;;;20.89;63.96
75692;BME280;64307;52.508;6.090;2023-05-07T09:34:50;101846.66;;;20.88;62.64
75692;BME280;64307;52.508;6.090;2023-05-07T09:37:16;101846.66;;;21.20;61.43
75692;BME280;64307;52.508;6.090;2023-05-07T09:39:43;101842.69;;;21.17;62.23
75692;BME280;64307;52.508;6.090;2023-05-07T09:42:08;101844.38;;;22.26;59.58
75692;BME280;64307;52.508;6.090;2023-05-07T09:44:34;101846.38;;;24.22;53.75
75692;BME280;64307;52.508;6.090;2023-05-07T09:47:01;101837.06;;;23.56;55.04
75692;BME280;64307;52.508;6.090;2023-05-07T09:49:30;101840.88;;;23.19;56.73
75692;BME280;64307;52.508;6.090;2023-05-07T09:51:57;101836.47;;;22.93;56.20
75692;BME280;64307;52.508;6.090;2023-05-07T09:54:28;101834.81;;;24.65;52.10
75692;BME280;64307;52.508;6.090;2023-05-07T09:56:55;101836.06;;;23.94;52.31
75692;BME280;64307;52.508;6.090;2023-05-07T09:59:21;101846.19;;;22.58;55.97
75692;BME280;64307;52.508;6.090;2023-05-07T10:01:46;101839.56;;;21.85;59.66
75692;BME280;64307;52.508;6.090;2023-05-07T10:04:12;101831.53;;;21.68;59.99
75692;BME280;64307;52.508;6.090;2023-05-07T10:06:38;101850.94;;;22.36;58.40
75692;BME280;64307;52.508;6.090;2023-05-07T10:09:03;101846.63;;;21.65;59.79
75692;BME280;64307;52.508;6.090;2023-05-07T10:11:33;101837.53;;;22.11;58.44
75692;BME280;64307;52.508;6.090;2023-05-07T10:14:04;101840.09;;;21.23;60.63
75692;BME280;64307;52.508;6.090;2023-05-07T10:16:36;101845.41;;;21.21;61.35
75692;BME280;64307;52.508;6.090;2023-05-07T10:19:09;101850.72;;;21.76;60.59
75692;BME280;64307;52.508;6.090;2023-05-07T10:21:37;101841.88;;;21.17;61.81
75692;BME280;64307;52.508;6.090;2023-05-07T10:24:26;101849.75;;;21.54;60.81
75692;BME280;64307;52.508;6.090;2023-05-07T10:26:53;101853.75;;;22.11;59.00
75692;BME280;64307;52.508;6.090;2023-05-07T10:32:28;101850.22;;;21.81;58.76
75692;BME280;64307;52.508;6.090;2023-05-07T10:34:59;101843.47;;;22.17;59.01
75692;BME280;64307;52.508;6.090;2023-05-07T10:37:26;101848.81;;;22.65;58.15
75692;BME280;64307;52.508;6.090;2023-05-07T10:39:52;101847.09;;;22.42;57.62
75692;BME280;64307;52.508;6.090;2023-05-07T10:42:17;101845.31;;;21.82;59.11
75692;BME280;64307;52.508;6.090;2023-05-07T10:44:42;101850.72;;;23.27;56.20
75692;BME280;64307;52.508;6.090;2023-05-07T10:47:12;101854.47;;;22.90;56.87
75692;BME280;64307;52.508;6.090;2023-05-07T10:52:16;101845.81;;;22.06;59.32
75692;BME280;64307;52.508;6.090;2023-05-07T10:54:44;101863.00;;;22.52;57.89
75692;BME280;64307;52.508;6.090;2023-05-07T10:59:56;101862.63;;;19.94;65.71
75692;BME280;64307;52.508;6.090;2023-05-07T11:02:22;101861.19;;;20.58;64.98
75692;BME280;64307;52.508;6.090;2023-05-07T11:05:20;101865.31;;;20.37;65.17
75692;BME280;64307;52.508;6.090;2023-05-07T11:07:54;101868.19;;;19.39;68.23
75692;BME280;64307;52.508;6.090;2023-05-07T11:10:20;101868.50;;;19.84;67.49
75692;BME280;64307;52.508;6.090;2023-05-07T11:15:12;101857.38;;;20.80;65.66
75692;BME280;64307;52.508;6.090;2023-05-07T11:17:54;101864.47;;;20.88;64.57
75692;BME280;64307;52.508;6.090;2023-05-07T11:20:20;101864.16;;;21.31;63.67
75692;BME280;64307;52.508;6.090;2023-05-07T11:22:46;101857.19;;;20.55;65.19
75692;BME280;64307;52.508;6.090;2023-05-07T11:25:17;101860.91;;;21.74;61.75
75692;BME280;64307;52.508;6.090;2023-05-07T11:27:44;101856.47;;;20.83;64.59
75692;BME280;64307;52.508;6.090;2023-05-07T11:30:10;101853.81;;;21.53;61.27
75692;BME280;64307;52.508;6.090;2023-05-07T11:32:36;101854.66;;;21.09;64.03
75692;BME280;64307;52.508;6.090;2023-05-07T11:35:01;101859.06;;;21.10;62.88
75692;BME280;64307;52.508;6.090;2023-05-07T11:37:27;101856.81;;;21.62;61.19
75692;BME280;64307;52.508;6.090;2023-05-07T11:40:04;101859.25;;;21.03;62.44
75692;BME280;64307;52.508;6.090;2023-05-07T11:42:33;101858.44;;;22.17;60.17
75692;BME280;64307;52.508;6.090;2023-05-07T11:44:59;101862.75;;;22.34;60.65
75692;BME280;64307;52.508;6.090;2023-05-07T11:47:25;101862.66;;;21.27;61.90
75692;BME280;64307;52.508;6.090;2023-05-07T11:49:52;101852.09;;;20.66;64.24
75692;BME280;64307;52.508;6.090;2023-05-07T11:52:21;101857.94;;;20.04;66.29
75692;BME280;64307;52.508;6.090;2023-05-07T11:54:54;101861.91;;;19.90;67.88
75692;BME280;64307;52.508;6.090;2023-05-07T11:57:21;101870.25;;;20.33;66.71
75692;BME280;64307;52.508;6.090;2023-05-07T11:59:47;101877.81;;;20.72;65.72
75692;BME280;64307;52.508;6.090;2023-05-07T12:02:17;101866.22;;;20.50;66.08
75692;BME280;64307;52.508;6.090;2023-05-07T12:04:42;101870.28;;;19.94;68.03
75692;BME280;64307;52.508;6.090;2023-05-07T12:07:12;101866.56;;;20.16;67.63
75692;BME280;64307;52.508;6.090;2023-05-07T12:09:39;101868.28;;;19.94;68.53
75692;BME280;64307;52.508;6.090;2023-05-07T12:12:05;101869.63;;;20.06;68.29
75692;BME280;64307;52.508;6.090;2023-05-07T12:14:30;101872.41;;;19.70;70.48
75692;BME280;64307;52.508;6.090;2023-05-07T12:16:56;101870.28;;;20.13;69.39
75692;BME280;64307;52.508;6.090;2023-05-07T12:19:22;101874.84;;;20.27;68.49
75692;BME280;64307;52.508;6.090;2023-05-07T12:21:48;101881.34;;;20.60;67.05
75692;BME280;64307;52.508;6.090;2023-05-07T12:24:14;101869.41;;;20.36;66.76
75692;BME280;64307;52.508;6.090;2023-05-07T12:26:41;101874.44;;;19.89;67.80
75692;BME280;64307;52.508;6.090;2023-05-07T12:29:07;101871.94;;;20.30;67.10
75692;BME280;64307;52.508;6.090;2023-05-07T12:31:32;101872.72;;;20.31;67.44
75692;BME280;64307;52.508;6.090;2023-05-07T12:33:57;101860.50;;;19.79;68.80
75692;BME280;64307;52.508;6.090;2023-05-07T12:36:23;101878.28;;;19.79;69.01
75692;BME280;64307;52.508;6.090;2023-05-07T12:38:51;101866.88;;;20.02;68.70
75692;BME280;64307;52.508;6.090;2023-05-07T12:41:16;101880.00;;;19.73;69.64
75692;BME280;64307;52.508;6.090;2023-05-07T12:43:46;101877.03;;;20.00;68.82
75692;BME280;64307;52.508;6.090;2023-05-07T12:46:12;101886.44;;;19.34;71.12
75692;BME280;64307;52.508;6.090;2023-05-07T12:48:45;101877.16;;;20.12;69.32
75692;BME280;64307;52.508;6.090;2023-05-07T12:51:11;101876.94;;;20.03;69.01